LPCS Airport Information

Runway Information
Runway 17 Length 3904 ft width 98 ft
Elevation 326 ft Threshold 0 ft Heading 164
Runway 35 Length 3904 ft Width 98 ft
Elevation 287 ft Threshold 0 ft Heading 344
Airport Frequencies
Type GND Name GND Frequency 121.825 MHZ
Type TWR Name TWR Frequency 120.3 MHZ
Airport Navaids
Type NDB Name Cascais Frequency 359 KHZ
Type VOR-DME Name Cascais Frequency 114300 KHZ
Airport Weather Information & NOTAM
ADDS - METARS form results

(1424 UTC 19 May 2022)
Data provider http://aviationweather.gov/metar/data/
 
METAR text: LPCS 191400Z 02010KT 340V060 CAVOK 26/14 Q1016
Conditions at: LPCS (CASCAIS , PT) observed 1400 UTC 19 May 2022
Temperature: 26.0°C (79°F)
Dewpoint: 14.0°C (57°F) [RH = 48%]
Pressure (altimeter): 30.00 inches Hg (1016.0 mb)
Winds: from the NNE (20 degrees) at 12 MPH (10 knots; 5.1 m/s)
Visibility: 6 or more miles (10+ km)
Ceiling: ceiling and visibility are OK
Clouds: unknown
Weather: no significant weather observed at this time

METAR text: LPCS 191330Z 01009KT 330V040 CAVOK 25/13 Q1016
Conditions at: LPCS (CASCAIS , PT) observed 1330 UTC 19 May 2022
Temperature: 25.0°C (77°F)
Dewpoint: 13.0°C (55°F) [RH = 47%]
Pressure (altimeter): 30.00 inches Hg (1016.0 mb)
Winds: from the N (10 degrees) at 10 MPH (9 knots; 4.6 m/s)
Visibility: 6 or more miles (10+ km)
Ceiling: ceiling and visibility are OK
Clouds: unknown
Weather: no significant weather observed at this time

Forecast for: LPCS (CASCAIS , PT)
Text: TAF LPCS 191400Z 1915/1924 01010KT CAVOK
Forecast period: 1500 UTC 19 May 2022 to 0000 UTC 20 May 2022
Forecast type: FROM: standard forecast or significant change
Winds: from the N (10 degrees) at 12 MPH (10 knots; 5.1 m/s)
Visibility: 6 or more miles (10+ km)
Ceiling: unknown
Clouds: missing
Weather: NSW  (no significant weather)
Text: BECMG 1915/1918 35017KT
Forecast period: 1500 to 2000 UTC 19 May 2022
Forecast type: BECOMING: Conditions expected to become as follows by 1800 UTC 19 May 2022
Winds: from the N (350 degrees) at 20 MPH (17 knots; 8.7 m/s)
Visibility: 6 or more miles (10+ km)
Ceiling: unknown
Clouds: missing
Weather: NSW  (no significant weather)
Text: BECMG 1920/1923 35012KT
Forecast period: 2000 UTC 19 May 2022 to 0000 UTC 20 May 2022
Forecast type: BECOMING: Conditions expected to become as follows by 2300 UTC 19 May 2022
Winds: from the N (350 degrees) at 14 MPH (12 knots; 6.2 m/s)
Visibility: 6 or more miles (10+ km)
Ceiling: unknown
Clouds: missing
Weather: NSW  (no significant weather)